sensor_id;sensor_type;location;lat;lon;timestamp;temperature;humidity
59923;DHT22;45778;51.142;3.732;2023-09-07T00:01:08;20.70;99.90
59923;DHT22;45778;51.142;3.732;2023-09-07T00:03:34;20.70;99.90
59923;DHT22;45778;51.142;3.732;2023-09-07T00:06:00;20.60;99.90
59923;DHT22;45778;51.142;3.732;2023-09-07T00:08:26;20.70;99.90
59923;DHT22;45778;51.142;3.732;2023-09-07T00:10:52;20.60;99.90
59923;DHT22;45778;51.142;3.732;2023-09-07T00:13:17;20.60;99.90
59923;DHT22;45778;51.142;3.732;2023-09-07T00:15:43;20.60;99.90
59923;DHT22;45778;51.142;3.732;2023-09-07T00:18:09;20.50;99.90
59923;DHT22;45778;51.142;3.732;2023-09-07T00:20:35;20.50;99.90
59923;DHT22;45778;51.142;3.732;2023-09-07T00:23:02;20.40;99.90
59923;DHT22;45778;51.142;3.732;2023-09-07T00:25:28;20.40;99.90
59923;DHT22;45778;51.142;3.732;2023-09-07T00:27:54;20.30;99.90
59923;DHT22;45778;51.142;3.732;2023-09-07T00:30:20;20.30;99.90
59923;DHT22;45778;51.142;3.732;2023-09-07T00:32:45;20.20;99.90
59923;DHT22;45778;51.142;3.732;2023-09-07T00:35:11;20.20;99.90
59923;DHT22;45778;51.142;3.732;2023-09-07T00:37:37;20.10;99.90
59923;DHT22;45778;51.142;3.732;2023-09-07T00:40:04;20.10;99.90
59923;DHT22;45778;51.142;3.732;2023-09-07T00:42:34;20.00;99.90
59923;DHT22;45778;51.142;3.732;2023-09-07T00:45:00;19.90;99.90
59923;DHT22;45778;51.142;3.732;2023-09-07T00:47:25;19.80;99.90
59923;DHT22;45778;51.142;3.732;2023-09-07T00:49:51;19.70;99.90
59923;DHT22;45778;51.142;3.732;2023-09-07T00:52:17;19.70;99.90
59923;DHT22;45778;51.142;3.732;2023-09-07T00:54:44;19.60;99.90
59923;DHT22;45778;51.142;3.732;2023-09-07T00:57:10;19.60;99.90
59923;DHT22;45778;51.142;3.732;2023-09-07T00:59:36;19.60;99.90
59923;DHT22;45778;51.142;3.732;2023-09-07T01:02:01;19.50;99.90
59923;DHT22;45778;51.142;3.732;2023-09-07T01:04:30;19.50;99.90
59923;DHT22;45778;51.142;3.732;2023-09-07T01:06:57;19.40;99.90
59923;DHT22;45778;51.142;3.732;2023-09-07T01:09:30;19.40;99.90
59923;DHT22;45778;51.142;3.732;2023-09-07T01:11:57;19.40;99.90
59923;DHT22;45778;51.142;3.732;2023-09-07T01:14:23;19.40;99.90
59923;DHT22;45778;51.142;3.732;2023-09-07T01:16:49;19.40;99.90
59923;DHT22;45778;51.142;3.732;2023-09-07T01:19:15;19.40;99.90
59923;DHT22;45778;51.142;3.732;2023-09-07T01:21:41;19.40;99.90
59923;DHT22;45778;51.142;3.732;2023-09-07T01:24:11;19.40;99.90
59923;DHT22;45778;51.142;3.732;2023-09-07T01:26:38;19.40;99.90
59923;DHT22;45778;51.142;3.732;2023-09-07T01:29:08;19.50;99.90
59923;DHT22;45778;51.142;3.732;2023-09-07T01:31:37;19.40;99.90
59923;DHT22;45778;51.142;3.732;2023-09-07T01:34:04;19.40;99.90
59923;DHT22;45778;51.142;3.732;2023-09-07T01:36:30;19.40;99.90
59923;DHT22;45778;51.142;3.732;2023-09-07T01:38:56;19.40;99.90
59923;DHT22;45778;51.142;3.732;2023-09-07T01:41:21;19.40;99.90
59923;DHT22;45778;51.142;3.732;2023-09-07T01:43:48;19.30;99.90
59923;DHT22;45778;51.142;3.732;2023-09-07T01:46:14;19.30;99.90
59923;DHT22;45778;51.142;3.732;2023-09-07T01:48:39;19.20;99.90
59923;DHT22;45778;51.142;3.732;2023-09-07T01:51:07;19.20;99.90
59923;DHT22;45778;51.142;3.732;2023-09-07T01:53:33;19.20;99.90
59923;DHT22;45778;51.142;3.732;2023-09-07T01:55:58;19.20;99.90
59923;DHT22;45778;51.142;3.732;2023-09-07T01:58:24;19.10;99.90
59923;DHT22;45778;51.142;3.732;2023-09-07T02:00:52;19.00;99.90
59923;DHT22;45778;51.142;3.732;2023-09-07T02:03:18;19.10;99.90
59923;DHT22;45778;51.142;3.732;2023-09-07T02:05:45;19.00;99.90
59923;DHT22;45778;51.142;3.732;2023-09-07T02:08:11;18.90;99.90
59923;DHT22;45778;51.142;3.732;2023-09-07T02:10:37;18.80;99.90
59923;DHT22;45778;51.142;3.732;2023-09-07T02:13:03;18.70;99.90
59923;DHT22;45778;51.142;3.732;2023-09-07T02:15:29;18.70;99.90
59923;DHT22;45778;51.142;3.732;2023-09-07T02:17:57;18.60;99.90
59923;DHT22;45778;51.142;3.732;2023-09-07T02:20:23;18.60;99.90
59923;DHT22;45778;51.142;3.732;2023-09-07T02:22:50;18.50;99.90
59923;DHT22;45778;51.142;3.732;2023-09-07T02:25:15;18.40;99.90
59923;DHT22;45778;51.142;3.732;2023-09-07T02:27:42;18.40;99.90
59923;DHT22;45778;51.142;3.732;2023-09-07T02:30:07;18.30;99.90
59923;DHT22;45778;51.142;3.732;2023-09-07T02:32:33;18.40;99.90
59923;DHT22;45778;51.142;3.732;2023-09-07T02:34:59;18.30;99.90
59923;DHT22;45778;51.142;3.732;2023-09-07T02:37:28;18.30;99.90
59923;DHT22;45778;51.142;3.732;2023-09-07T02:39:53;18.30;99.90
59923;DHT22;45778;51.142;3.732;2023-09-07T02:42:20;18.30;99.90
59923;DHT22;45778;51.142;3.732;2023-09-07T02:44:45;18.30;99.90
59923;DHT22;45778;51.142;3.732;2023-09-07T02:47:11;18.40;99.90
59923;DHT22;45778;51.142;3.732;2023-09-07T02:49:37;18.30;99.90
59923;DHT22;45778;51.142;3.732;2023-09-07T02:52:02;18.30;99.90
59923;DHT22;45778;51.142;3.732;2023-09-07T02:54:28;18.40;99.90
59923;DHT22;45778;51.142;3.732;2023-09-07T02:56:54;18.30;99.90
59923;DHT22;45778;51.142;3.732;2023-09-07T02:59:20;18.40;99.90
59923;DHT22;45778;51.142;3.732;2023-09-07T03:01:46;18.30;99.90
59923;DHT22;45778;51.142;3.732;2023-09-07T03:04:11;18.30;99.90
59923;DHT22;45778;51.142;3.732;2023-09-07T03:06:37;18.30;99.90
59923;DHT22;45778;51.142;3.732;2023-09-07T03:09:03;18.30;99.90
59923;DHT22;45778;51.142;3.732;2023-09-07T03:11:32;18.30;99.90
59923;DHT22;45778;51.142;3.732;2023-09-07T03:13:59;18.20;99.90
59923;DHT22;45778;51.142;3.732;2023-09-07T03:16:25;18.10;99.90
59923;DHT22;45778;51.142;3.732;2023-09-07T03:18:50;18.10;99.90
59923;DHT22;45778;51.142;3.732;2023-09-07T03:21:16;18.10;99.90
59923;DHT22;45778;51.142;3.732;2023-09-07T03:23:42;18.10;99.90
59923;DHT22;45778;51.142;3.732;2023-09-07T03:26:10;18.10;99.90
59923;DHT22;45778;51.142;3.732;2023-09-07T03:28:36;18.00;99.90
59923;DHT22;45778;51.142;3.732;2023-09-07T03:31:02;17.90;99.90
59923;DHT22;45778;51.142;3.732;2023-09-07T03:33:28;17.80;99.90
59923;DHT22;45778;51.142;3.732;2023-09-07T03:35:53;17.80;99.90
59923;DHT22;45778;51.142;3.732;2023-09-07T03:38:24;17.90;99.90
59923;DHT22;45778;51.142;3.732;2023-09-07T03:40:50;17.90;99.90
59923;DHT22;45778;51.142;3.732;2023-09-07T03:43:17;17.90;99.90
59923;DHT22;45778;51.142;3.732;2023-09-07T03:45:43;17.90;99.90
59923;DHT22;45778;51.142;3.732;2023-09-07T03:48:08;17.90;99.90
59923;DHT22;45778;51.142;3.732;2023-09-07T03:50:34;17.90;99.90
59923;DHT22;45778;51.142;3.732;2023-09-07T03:53:01;17.80;99.90
59923;DHT22;45778;51.142;3.732;2023-09-07T03:55:26;17.80;99.90
59923;DHT22;45778;51.142;3.732;2023-09-07T03:57:52;17.80;99.90
59923;DHT22;45778;51.142;3.732;2023-09-07T04:00:18;17.70;99.90
59923;DHT22;45778;51.142;3.732;2023-09-07T04:02:44;17.60;99.90
59923;DHT22;45778;51.142;3.732;2023-09-07T04:05:10;17.60;99.90
59923;DHT22;45778;51.142;3.732;2023-09-07T04:07:38;17.70;99.90
59923;DHT22;45778;51.142;3.732;2023-09-07T04:10:07;17.70;99.90
59923;DHT22;45778;51.142;3.732;2023-09-07T04:12:33;17.70;99.90
59923;DHT22;45778;51.142;3.732;2023-09-07T04:15:00;17.70;99.90
59923;DHT22;45778;51.142;3.732;2023-09-07T04:17:26;17.70;99.90
59923;DHT22;45778;51.142;3.732;2023-09-07T04:19:52;17.70;99.90
59923;DHT22;45778;51.142;3.732;2023-09-07T04:22:17;17.70;99.90
59923;DHT22;45778;51.142;3.732;2023-09-07T04:24:43;17.70;99.90
59923;DHT22;45778;51.142;3.732;2023-09-07T04:27:12;17.70;99.90
59923;DHT22;45778;51.142;3.732;2023-09-07T04:29:38;17.70;99.90
59923;DHT22;45778;51.142;3.732;2023-09-07T04:32:03;17.70;99.90
59923;DHT22;45778;51.142;3.732;2023-09-07T04:34:29;17.60;99.90
59923;DHT22;45778;51.142;3.732;2023-09-07T04:36:55;17.50;99.90
59923;DHT22;45778;51.142;3.732;2023-09-07T04:39:20;17.50;99.90
59923;DHT22;45778;51.142;3.732;2023-09-07T04:41:46;17.50;99.90
59923;DHT22;45778;51.142;3.732;2023-09-07T04:44:12;17.40;99.90
59923;DHT22;45778;51.142;3.732;2023-09-07T04:46:37;17.40;99.90
59923;DHT22;45778;51.142;3.732;2023-09-07T04:49:03;17.40;99.90
59923;DHT22;45778;51.142;3.732;2023-09-07T04:51:29;17.30;99.90
59923;DHT22;45778;51.142;3.732;2023-09-07T04:53:55;17.30;99.90
59923;DHT22;45778;51.142;3.732;2023-09-07T04:56:20;17.30;99.90
59923;DHT22;45778;51.142;3.732;2023-09-07T04:58:47;17.20;99.90
59923;DHT22;45778;51.142;3.732;2023-09-07T05:01:13;17.20;99.90
59923;DHT22;45778;51.142;3.732;2023-09-07T05:03:38;17.20;99.90
59923;DHT22;45778;51.142;3.732;2023-09-07T05:06:07;17.10;99.90
59923;DHT22;45778;51.142;3.732;2023-09-07T05:08:33;17.10;99.90
59923;DHT22;45778;51.142;3.732;2023-09-07T05:11:00;17.00;99.90
59923;DHT22;45778;51.142;3.732;2023-09-07T05:13:27;17.10;99.90
59923;DHT22;45778;51.142;3.732;2023-09-07T05:15:54;17.00;99.90
59923;DHT22;45778;51.142;3.732;2023-09-07T05:18:21;17.00;99.90
59923;DHT22;45778;51.142;3.732;2023-09-07T05:20:47;17.10;99.90
59923;DHT22;45778;51.142;3.732;2023-09-07T05:23:18;17.10;99.90
59923;DHT22;45778;51.142;3.732;2023-09-07T05:25:45;17.20;99.90
59923;DHT22;45778;51.142;3.732;2023-09-07T05:28:13;17.30;99.90
59923;DHT22;45778;51.142;3.732;2023-09-07T05:30:40;17.50;99.90
59923;DHT22;45778;51.142;3.732;2023-09-07T05:33:06;17.60;99.90
59923;DHT22;45778;51.142;3.732;2023-09-07T05:35:36;17.60;99.90
59923;DHT22;45778;51.142;3.732;2023-09-07T05:38:02;17.70;99.90
59923;DHT22;45778;51.142;3.732;2023-09-07T05:40:28;17.80;99.90
59923;DHT22;45778;51.142;3.732;2023-09-07T05:42:54;17.90;99.90
59923;DHT22;45778;51.142;3.732;2023-09-07T05:45:20;18.10;99.90
59923;DHT22;45778;51.142;3.732;2023-09-07T05:47:46;18.20;99.90
59923;DHT22;45778;51.142;3.732;2023-09-07T05:50:11;18.30;99.90
59923;DHT22;45778;51.142;3.732;2023-09-07T05:52:37;18.40;99.90
59923;DHT22;45778;51.142;3.732;2023-09-07T05:55:03;18.50;99.90
59923;DHT22;45778;51.142;3.732;2023-09-07T05:57:29;18.60;99.90
59923;DHT22;45778;51.142;3.732;2023-09-07T05:59:55;18.80;99.90
59923;DHT22;45778;51.142;3.732;2023-09-07T06:02:20;18.90;99.90
59923;DHT22;45778;51.142;3.732;2023-09-07T06:04:46;19.00;99.90
59923;DHT22;45778;51.142;3.732;2023-09-07T06:07:12;19.10;99.90
59923;DHT22;45778;51.142;3.732;2023-09-07T06:09:37;19.20;99.90
59923;DHT22;45778;51.142;3.732;2023-09-07T06:12:03;19.20;99.90
59923;DHT22;45778;51.142;3.732;2023-09-07T06:14:29;19.30;99.90
59923;DHT22;45778;51.142;3.732;2023-09-07T06:16:55;19.40;99.90
59923;DHT22;45778;51.142;3.732;2023-09-07T06:19:20;19.50;99.90
59923;DHT22;45778;51.142;3.732;2023-09-07T06:21:46;19.60;99.90
59923;DHT22;45778;51.142;3.732;2023-09-07T06:24:12;19.70;99.90
59923;DHT22;45778;51.142;3.732;2023-09-07T06:26:38;19.80;99.90
59923;DHT22;45778;51.142;3.732;2023-09-07T06:29:03;19.80;99.90
59923;DHT22;45778;51.142;3.732;2023-09-07T06:31:29;19.90;99.90
59923;DHT22;45778;51.142;3.732;2023-09-07T06:33:55;20.00;99.90
59923;DHT22;45778;51.142;3.732;2023-09-07T06:36:20;20.10;99.90
59923;DHT22;45778;51.142;3.732;2023-09-07T06:38:46;20.20;99.90
59923;DHT22;45778;51.142;3.732;2023-09-07T06:41:12;20.30;99.90
59923;DHT22;45778;51.142;3.732;2023-09-07T06:43:37;20.40;99.90
59923;DHT22;45778;51.142;3.732;2023-09-07T06:46:07;20.40;99.90
59923;DHT22;45778;51.142;3.732;2023-09-07T06:48:34;20.30;99.90
59923;DHT22;45778;51.142;3.732;2023-09-07T06:51:03;20.20;99.90
59923;DHT22;45778;51.142;3.732;2023-09-07T06:53:30;20.20;99.90
59923;DHT22;45778;51.142;3.732;2023-09-07T06:55:59;20.40;99.90
59923;DHT22;45778;51.142;3.732;2023-09-07T06:58:25;20.50;99.90
59923;DHT22;45778;51.142;3.732;2023-09-07T07:00:51;20.50;99.90
59923;DHT22;45778;51.142;3.732;2023-09-07T07:03:17;20.60;99.90
59923;DHT22;45778;51.142;3.732;2023-09-07T07:05:42;20.70;99.90
59923;DHT22;45778;51.142;3.732;2023-09-07T07:08:09;20.80;99.90
59923;DHT22;45778;51.142;3.732;2023-09-07T07:10:35;20.70;99.90
59923;DHT22;45778;51.142;3.732;2023-09-07T07:13:03;20.80;99.90
59923;DHT22;45778;51.142;3.732;2023-09-07T07:15:29;21.00;99.90
59923;DHT22;45778;51.142;3.732;2023-09-07T07:17:54;21.10;99.90
59923;DHT22;45778;51.142;3.732;2023-09-07T07:20:20;21.20;99.90
59923;DHT22;45778;51.142;3.732;2023-09-07T07:22:46;21.30;99.90
59923;DHT22;45778;51.142;3.732;2023-09-07T07:25:11;21.40;99.90
59923;DHT22;45778;51.142;3.732;2023-09-07T07:27:38;21.50;99.90
59923;DHT22;45778;51.142;3.732;2023-09-07T07:30:05;21.70;99.90
59923;DHT22;45778;51.142;3.732;2023-09-07T07:32:31;21.80;99.90
59923;DHT22;45778;51.142;3.732;2023-09-07T07:34:56;22.00;99.90
59923;DHT22;45778;51.142;3.732;2023-09-07T07:37:22;22.10;99.90
59923;DHT22;45778;51.142;3.732;2023-09-07T07:39:48;22.30;99.90
59923;DHT22;45778;51.142;3.732;2023-09-07T07:42:13;22.30;99.90
59923;DHT22;45778;51.142;3.732;2023-09-07T07:44:39;22.40;99.90
59923;DHT22;45778;51.142;3.732;2023-09-07T07:47:05;22.40;99.90
59923;DHT22;45778;51.142;3.732;2023-09-07T07:49:30;22.50;99.90
59923;DHT22;45778;51.142;3.732;2023-09-07T07:51:57;22.70;99.90
59923;DHT22;45778;51.142;3.732;2023-09-07T07:54:23;22.80;99.90
59923;DHT22;45778;51.142;3.732;2023-09-07T07:56:50;23.00;99.90
59923;DHT22;45778;51.142;3.732;2023-09-07T07:59:16;23.10;99.90
59923;DHT22;45778;51.142;3.732;2023-09-07T08:01:41;23.10;99.90
59923;DHT22;45778;51.142;3.732;2023-09-07T08:04:08;23.20;99.90
59923;DHT22;45778;51.142;3.732;2023-09-07T08:06:34;23.20;99.90
59923;DHT22;45778;51.142;3.732;2023-09-07T08:09:00;23.20;99.90
59923;DHT22;45778;51.142;3.732;2023-09-07T08:11:26;23.20;99.90
59923;DHT22;45778;51.142;3.732;2023-09-07T08:13:52;23.30;99.90
59923;DHT22;45778;51.142;3.732;2023-09-07T08:16:18;23.30;99.90
59923;DHT22;45778;51.142;3.732;2023-09-07T08:18:44;23.30;99.90
59923;DHT22;45778;51.142;3.732;2023-09-07T08:21:10;23.20;99.90
59923;DHT22;45778;51.142;3.732;2023-09-07T08:23:35;23.30;99.90
59923;DHT22;45778;51.142;3.732;2023-09-07T08:26:05;23.40;99.90
59923;DHT22;45778;51.142;3.732;2023-09-07T08:28:34;23.40;99.90
59923;DHT22;45778;51.142;3.732;2023-09-07T08:31:00;23.70;99.90
59923;DHT22;45778;51.142;3.732;2023-09-07T08:33:25;23.90;99.90
59923;DHT22;45778;51.142;3.732;2023-09-07T08:35:58;23.70;99.90
59923;DHT22;45778;51.142;3.732;2023-09-07T08:38:25;23.80;99.90
59923;DHT22;45778;51.142;3.732;2023-09-07T08:40:55;23.80;99.90
59923;DHT22;45778;51.142;3.732;2023-09-07T08:43:28;23.90;99.90
59923;DHT22;45778;51.142;3.732;2023-09-07T08:46:09;24.00;99.90
59923;DHT22;45778;51.142;3.732;2023-09-07T08:48:39;24.10;99.90
59923;DHT22;45778;51.142;3.732;2023-09-07T08:51:07;24.30;99.90
59923;DHT22;45778;51.142;3.732;2023-09-07T08:53:36;24.40;99.90
59923;DHT22;45778;51.142;3.732;2023-09-07T08:56:06;24.60;99.90
59923;DHT22;45778;51.142;3.732;2023-09-07T08:58:32;24.70;99.90
59923;DHT22;45778;51.142;3.732;2023-09-07T09:00:57;24.90;99.90
59923;DHT22;45778;51.142;3.732;2023-09-07T09:03:23;25.10;99.90
59923;DHT22;45778;51.142;3.732;2023-09-07T09:05:50;25.30;99.90
59923;DHT22;45778;51.142;3.732;2023-09-07T09:08:16;25.40;99.90
59923;DHT22;45778;51.142;3.732;2023-09-07T09:10:45;25.30;99.90
59923;DHT22;45778;51.142;3.732;2023-09-07T09:13:11;25.50;99.90
59923;DHT22;45778;51.142;3.732;2023-09-07T09:15:37;25.70;99.90
59923;DHT22;45778;51.142;3.732;2023-09-07T09:18:10;25.80;99.90
59923;DHT22;45778;51.142;3.732;2023-09-07T09:20:38;25.90;99.90
59923;DHT22;45778;51.142;3.732;2023-09-07T09:23:03;25.90;99.90
59923;DHT22;45778;51.142;3.732;2023-09-07T09:25:31;26.00;99.90
59923;DHT22;45778;51.142;3.732;2023-09-07T09:27:57;26.20;99.90
59923;DHT22;45778;51.142;3.732;2023-09-07T09:30:22;26.30;99.90
59923;DHT22;45778;51.142;3.732;2023-09-07T09:32:48;26.30;99.90
59923;DHT22;45778;51.142;3.732;2023-09-07T09:35:16;26.20;99.90
59923;DHT22;45778;51.142;3.732;2023-09-07T09:37:47;26.30;99.40
59923;DHT22;45778;51.142;3.732;2023-09-07T09:40:14;26.30;99.50
59923;DHT22;45778;51.142;3.732;2023-09-07T09:42:42;26.20;99.80
59923;DHT22;45778;51.142;3.732;2023-09-07T09:45:09;26.30;99.90
59923;DHT22;45778;51.142;3.732;2023-09-07T09:47:39;26.50;99.40
59923;DHT22;45778;51.142;3.732;2023-09-07T09:50:07;26.80;99.40
59923;DHT22;45778;51.142;3.732;2023-09-07T09:52:36;27.00;98.20
59923;DHT22;45778;51.142;3.732;2023-09-07T09:55:06;27.10;98.00
59923;DHT22;45778;51.142;3.732;2023-09-07T09:57:36;27.30;97.30
59923;DHT22;45778;51.142;3.732;2023-09-07T10:00:04;27.30;96.70
59923;DHT22;45778;51.142;3.732;2023-09-07T10:05:32;27.40;96.60
59923;DHT22;45778;51.142;3.732;2023-09-07T10:08:02;27.50;96.90
59923;DHT22;45778;51.142;3.732;2023-09-07T10:10:35;27.60;96.00
59923;DHT22;45778;51.142;3.732;2023-09-07T10:13:02;27.80;96.40
59923;DHT22;45778;51.142;3.732;2023-09-07T10:15:29;27.90;95.80
59923;DHT22;45778;51.142;3.732;2023-09-07T10:18:15;27.90;94.80
59923;DHT22;45778;51.142;3.732;2023-09-07T10:23:17;28.10;94.90
59923;DHT22;45778;51.142;3.732;2023-09-07T10:25:47;27.90;95.40
59923;DHT22;45778;51.142;3.732;2023-09-07T10:30:45;28.00;94.30
59923;DHT22;45778;51.142;3.732;2023-09-07T10:33:23;28.20;94.70
59923;DHT22;45778;51.142;3.732;2023-09-07T10:35:48;28.40;94.80
59923;DHT22;45778;51.142;3.732;2023-09-07T10:38:14;28.40;94.60
59923;DHT22;45778;51.142;3.732;2023-09-07T10:40:43;28.40;94.80
59923;DHT22;45778;51.142;3.732;2023-09-07T10:43:09;28.40;94.60
59923;DHT22;45778;51.142;3.732;2023-09-07T10:45:35;28.60;94.20
59923;DHT22;45778;51.142;3.732;2023-09-07T10:48:00;28.50;93.70
59923;DHT22;45778;51.142;3.732;2023-09-07T10:50:26;28.30;93.70
59923;DHT22;45778;51.142;3.732;2023-09-07T10:52:53;28.50;94.60
59923;DHT22;45778;51.142;3.732;2023-09-07T10:55:19;28.80;94.00
59923;DHT22;45778;51.142;3.732;2023-09-07T10:57:46;28.90;93.60
59923;DHT22;45778;51.142;3.732;2023-09-07T11:00:13;29.10;93.30
59923;DHT22;45778;51.142;3.732;2023-09-07T11:02:40;29.30;92.90
59923;DHT22;45778;51.142;3.732;2023-09-07T11:05:07;29.40;93.10
59923;DHT22;45778;51.142;3.732;2023-09-07T11:07:33;29.50;92.90
59923;DHT22;45778;51.142;3.732;2023-09-07T11:10:00;29.50;92.40
59923;DHT22;45778;51.142;3.732;2023-09-07T11:12:25;29.10;93.20
59923;DHT22;45778;51.142;3.732;2023-09-07T11:14:51;29.10;93.10
59923;DHT22;45778;51.142;3.732;2023-09-07T11:17:26;29.30;92.90
59923;DHT22;45778;51.142;3.732;2023-09-07T11:19:52;29.30;92.40
59923;DHT22;45778;51.142;3.732;2023-09-07T11:22:18;29.30;92.40
59923;DHT22;45778;51.142;3.732;2023-09-07T11:24:45;29.20;93.00
59923;DHT22;45778;51.142;3.732;2023-09-07T11:27:11;29.30;93.20
59923;DHT22;45778;51.142;3.732;2023-09-07T11:29:37;29.50;92.60
59923;DHT22;45778;51.142;3.732;2023-09-07T11:32:11;29.80;92.10
59923;DHT22;45778;51.142;3.732;2023-09-07T11:34:49;29.80;92.00
59923;DHT22;45778;51.142;3.732;2023-09-07T11:37:16;30.10;92.00
59923;DHT22;45778;51.142;3.732;2023-09-07T11:39:43;30.20;92.10
59923;DHT22;45778;51.142;3.732;2023-09-07T11:42:08;30.10;92.00
59923;DHT22;45778;51.142;3.732;2023-09-07T11:44:34;30.20;92.90
59923;DHT22;45778;51.142;3.732;2023-09-07T11:47:01;30.30;92.20
59923;DHT22;45778;51.142;3.732;2023-09-07T11:49:26;30.40;92.30
59923;DHT22;45778;51.142;3.732;2023-09-07T11:51:52;30.20;91.60
59923;DHT22;45778;51.142;3.732;2023-09-07T11:54:19;30.30;91.00
59923;DHT22;45778;51.142;3.732;2023-09-07T11:56:44;30.10;91.10
59923;DHT22;45778;51.142;3.732;2023-09-07T11:59:11;30.00;91.90
59923;DHT22;45778;51.142;3.732;2023-09-07T12:01:36;30.20;91.30
59923;DHT22;45778;51.142;3.732;2023-09-07T12:04:05;30.40;91.60
59923;DHT22;45778;51.142;3.732;2023-09-07T12:06:31;31.00;89.70
59923;DHT22;45778;51.142;3.732;2023-09-07T12:09:05;31.00;88.80
59923;DHT22;45778;51.142;3.732;2023-09-07T12:11:32;31.80;88.60
59923;DHT22;45778;51.142;3.732;2023-09-07T12:13:58;33.00;86.00
59923;DHT22;45778;51.142;3.732;2023-09-07T12:16:26;34.10;84.00
59923;DHT22;45778;51.142;3.732;2023-09-07T12:18:51;35.50;79.10
59923;DHT22;45778;51.142;3.732;2023-09-07T12:21:17;36.90;76.00
59923;DHT22;45778;51.142;3.732;2023-09-07T12:23:43;38.00;73.00
59923;DHT22;45778;51.142;3.732;2023-09-07T12:26:08;37.90;69.10
59923;DHT22;45778;51.142;3.732;2023-09-07T12:28:34;38.10;70.40
59923;DHT22;45778;51.142;3.732;2023-09-07T12:31:00;38.90;67.70
59923;DHT22;45778;51.142;3.732;2023-09-07T12:33:25;39.70;66.10
59923;DHT22;45778;51.142;3.732;2023-09-07T12:35:51;39.40;64.30
59923;DHT22;45778;51.142;3.732;2023-09-07T12:38:17;39.40;63.00
59923;DHT22;45778;51.142;3.732;2023-09-07T12:40:45;40.40;62.40
59923;DHT22;45778;51.142;3.732;2023-09-07T12:43:11;41.30;60.70
59923;DHT22;45778;51.142;3.732;2023-09-07T12:45:36;41.30;60.30
59923;DHT22;45778;51.142;3.732;2023-09-07T12:48:02;39.30;59.50
59923;DHT22;45778;51.142;3.732;2023-09-07T12:50:28;39.50;59.60
59923;DHT22;45778;51.142;3.732;2023-09-07T12:52:54;39.60;60.50
59923;DHT22;45778;51.142;3.732;2023-09-07T12:55:19;40.60;59.30
59923;DHT22;45778;51.142;3.732;2023-09-07T12:57:45;41.40;58.10
59923;DHT22;45778;51.142;3.732;2023-09-07T13:00:12;40.00;58.80
59923;DHT22;45778;51.142;3.732;2023-09-07T13:02:38;40.20;59.80
59923;DHT22;45778;51.142;3.732;2023-09-07T13:05:04;40.10;59.10
59923;DHT22;45778;51.142;3.732;2023-09-07T13:07:32;38.70;60.00
59923;DHT22;45778;51.142;3.732;2023-09-07T13:09:59;38.90;58.70
59923;DHT22;45778;51.142;3.732;2023-09-07T13:12:29;37.70;60.70
59923;DHT22;45778;51.142;3.732;2023-09-07T13:14:55;38.20;61.40
59923;DHT22;45778;51.142;3.732;2023-09-07T13:17:21;37.10;62.00
59923;DHT22;45778;51.142;3.732;2023-09-07T13:19:46;37.30;62.30
59923;DHT22;45778;51.142;3.732;2023-09-07T13:22:13;37.90;61.30
59923;DHT22;45778;51.142;3.732;2023-09-07T13:24:39;39.50;60.50
59923;DHT22;45778;51.142;3.732;2023-09-07T13:27:05;38.90;58.70
59923;DHT22;45778;51.142;3.732;2023-09-07T13:29:32;39.40;58.00
59923;DHT22;45778;51.142;3.732;2023-09-07T13:31:58;38.90;60.00
59923;DHT22;45778;51.142;3.732;2023-09-07T13:34:24;39.70;58.90
59923;DHT22;45778;51.142;3.732;2023-09-07T13:36:53;41.10;56.00
59923;DHT22;45778;51.142;3.732;2023-09-07T13:39:20;40.80;56.80
59923;DHT22;45778;51.142;3.732;2023-09-07T13:41:45;41.40;56.60
59923;DHT22;45778;51.142;3.732;2023-09-07T13:44:13;41.50;57.20
59923;DHT22;45778;51.142;3.732;2023-09-07T13:46:39;41.20;56.20
59923;DHT22;45778;51.142;3.732;2023-09-07T13:49:04;42.80;54.00
59923;DHT22;45778;51.142;3.732;2023-09-07T13:51:30;43.30;54.30
59923;DHT22;45778;51.142;3.732;2023-09-07T13:54:03;44.30;53.80
59923;DHT22;45778;51.142;3.732;2023-09-07T13:56:28;44.10;53.10
59923;DHT22;45778;51.142;3.732;2023-09-07T13:58:54;45.10;52.60
59923;DHT22;45778;51.142;3.732;2023-09-07T14:01:20;44.20;52.20
59923;DHT22;45778;51.142;3.732;2023-09-07T14:03:46;42.30;53.60
59923;DHT22;45778;51.142;3.732;2023-09-07T14:06:12;41.20;53.90
59923;DHT22;45778;51.142;3.732;2023-09-07T14:08:38;40.60;55.50
59923;DHT22;45778;51.142;3.732;2023-09-07T14:11:03;42.50;54.40
59923;DHT22;45778;51.142;3.732;2023-09-07T14:13:29;42.50;54.20
59923;DHT22;45778;51.142;3.732;2023-09-07T14:15:54;43.80;52.70
59923;DHT22;45778;51.142;3.732;2023-09-07T14:18:20;44.40;52.10
59923;DHT22;45778;51.142;3.732;2023-09-07T14:20:46;41.10;54.60
59923;DHT22;45778;51.142;3.732;2023-09-07T14:23:11;42.00;54.20
59923;DHT22;45778;51.142;3.732;2023-09-07T14:25:38;43.20;53.70
59923;DHT22;45778;51.142;3.732;2023-09-07T14:28:07;43.30;52.50
59923;DHT22;45778;51.142;3.732;2023-09-07T14:30:33;42.60;52.90
59923;DHT22;45778;51.142;3.732;2023-09-07T14:32:59;43.80;52.40
59923;DHT22;45778;51.142;3.732;2023-09-07T14:35:24;43.10;52.70
59923;DHT22;45778;51.142;3.732;2023-09-07T14:37:50;42.50;53.90
59923;DHT22;45778;51.142;3.732;2023-09-07T14:40:18;43.30;52.30
59923;DHT22;45778;51.142;3.732;2023-09-07T14:42:44;42.00;53.30
59923;DHT22;45778;51.142;3.732;2023-09-07T14:45:10;41.10;54.60
59923;DHT22;45778;51.142;3.732;2023-09-07T14:47:35;41.60;53.10
59923;DHT22;45778;51.142;3.732;2023-09-07T14:50:01;41.50;53.70
59923;DHT22;45778;51.142;3.732;2023-09-07T14:52:28;41.60;54.30
59923;DHT22;45778;51.142;3.732;2023-09-07T14:54:54;42.40;53.60
59923;DHT22;45778;51.142;3.732;2023-09-07T14:57:20;42.50;53.00
59923;DHT22;45778;51.142;3.732;2023-09-07T14:59:45;41.90;53.70
59923;DHT22;45778;51.142;3.732;2023-09-07T15:02:11;42.50;53.10
59923;DHT22;45778;51.142;3.732;2023-09-07T15:04:37;42.80;53.00
59923;DHT22;45778;51.142;3.732;2023-09-07T15:07:03;43.30;52.20
59923;DHT22;45778;51.142;3.732;2023-09-07T15:09:28;42.20;54.20
59923;DHT22;45778;51.142;3.732;2023-09-07T15:11:54;41.20;53.70
59923;DHT22;45778;51.142;3.732;2023-09-07T15:14:20;42.60;52.80
59923;DHT22;45778;51.142;3.732;2023-09-07T15:16:46;41.50;53.70
59923;DHT22;45778;51.142;3.732;2023-09-07T15:19:11;41.50;53.40
59923;DHT22;45778;51.142;3.732;2023-09-07T15:21:37;41.30;54.00
59923;DHT22;45778;51.142;3.732;2023-09-07T15:24:03;41.00;54.50
59923;DHT22;45778;51.142;3.732;2023-09-07T15:26:39;43.30;53.30
59923;DHT22;45778;51.142;3.732;2023-09-07T15:29:05;45.20;51.60
59923;DHT22;45778;51.142;3.732;2023-09-07T15:31:33;46.00;50.90
59923;DHT22;45778;51.142;3.732;2023-09-07T15:33:59;46.30;50.00